createdAt,value
2023-05-02T00:00:09.574Z,4.85
2023-05-02T00:02:35.898Z,5.63
2023-05-02T00:05:02.009Z,4.68
2023-05-02T00:07:27.925Z,5.65
2023-05-02T00:09:54.287Z,4.85
2023-05-02T00:12:20.170Z,5.72
2023-05-02T00:14:45.990Z,5.10
2023-05-02T00:17:19.105Z,5.05
2023-05-02T00:19:45.128Z,5.55
2023-05-02T00:22:11.023Z,4.53
2023-05-02T00:24:36.773Z,5.40
2023-05-02T00:27:02.601Z,4.40
2023-05-02T00:29:32.332Z,4.82
2023-05-02T00:31:58.185Z,5.18
2023-05-02T00:34:28.507Z,5.28
2023-05-02T00:36:54.329Z,5.55
2023-05-02T00:39:20.103Z,5.13
2023-05-02T00:41:45.898Z,4.40
2023-05-02T00:44:11.720Z,4.40
2023-05-02T00:46:37.711Z,4.85
2023-05-02T00:49:03.559Z,4.78
2023-05-02T00:51:29.387Z,5.05
2023-05-02T00:54:00.190Z,4.25
2023-05-02T00:58:52.441Z,4.50
2023-05-02T01:01:21.377Z,4.50
2023-05-02T01:03:59.542Z,4.55
2023-05-02T01:06:25.680Z,4.30
2023-05-02T01:09:00.791Z,4.50
2023-05-02T01:11:38.800Z,4.25
2023-05-02T01:14:05.430Z,4.32
2023-05-02T01:16:32.805Z,4.32
2023-05-02T01:18:59.000Z,4.00
2023-05-02T01:21:25.042Z,4.00
2023-05-02T01:24:02.356Z,4.75
2023-05-02T01:26:40.458Z,4.55
2023-05-02T01:29:07.789Z,4.15
2023-05-02T01:31:42.177Z,4.43
2023-05-02T01:34:09.657Z,3.80
2023-05-02T01:36:36.605Z,4.45
2023-05-02T01:39:03.394Z,4.63
2023-05-02T01:41:30.732Z,3.72
2023-05-02T01:43:57.382Z,4.18
2023-05-02T01:46:24.656Z,4.15
2023-05-02T01:48:51.840Z,4.72
2023-05-02T01:51:18.618Z,4.03
2023-05-02T01:53:45.730Z,4.10
2023-05-02T01:56:12.097Z,4.35
2023-05-02T01:58:39.113Z,4.35
2023-05-02T02:01:06.043Z,4.78
2023-05-02T02:03:32.110Z,3.92
2023-05-02T02:05:58.807Z,3.53
2023-05-02T02:08:24.959Z,3.85
2023-05-02T02:10:53.838Z,4.05
2023-05-02T02:13:25.185Z,4.03
2023-05-02T02:15:53.147Z,4.63
2023-05-02T02:18:24.601Z,4.05
2023-05-02T02:20:51.191Z,3.70
2023-05-02T02:23:17.993Z,3.25
2023-05-02T02:25:44.658Z,3.70
2023-05-02T02:28:10.640Z,3.60
2023-05-02T02:30:36.690Z,3.22
2023-05-02T02:33:02.745Z,3.45
2023-05-02T02:35:32.756Z,4.20
2023-05-02T02:38:02.657Z,3.35
2023-05-02T02:40:28.643Z,2.95
2023-05-02T02:43:12.170Z,3.75
2023-05-02T02:45:44.650Z,4.07
2023-05-02T02:48:28.180Z,3.33
2023-05-02T02:50:59.441Z,3.40
2023-05-02T02:53:27.074Z,3.17
2023-05-02T02:56:02.427Z,3.00
2023-05-02T02:58:38.898Z,2.97
2023-05-02T03:01:07.752Z,2.67
2023-05-02T03:03:33.831Z,2.70
2023-05-02T03:06:00.098Z,2.58
2023-05-02T03:08:26.075Z,2.50
2023-05-02T03:10:51.913Z,2.58
2023-05-02T03:13:17.800Z,3.00
2023-05-02T03:15:53.305Z,3.33
2023-05-02T03:18:19.238Z,3.28
2023-05-02T03:20:45.286Z,3.00
2023-05-02T03:23:11.189Z,2.92
2023-05-02T03:25:37.184Z,2.75
2023-05-02T03:28:03.060Z,2.63
2023-05-02T03:30:28.998Z,3.67
2023-05-02T03:32:54.828Z,2.42
2023-05-02T03:35:20.817Z,2.78
2023-05-02T03:37:46.633Z,2.80
2023-05-02T03:40:12.576Z,3.47
2023-05-02T03:42:41.336Z,3.20
2023-05-02T03:45:07.712Z,3.25
2023-05-02T03:47:36.309Z,2.80
2023-05-02T03:50:02.944Z,3.45
2023-05-02T03:52:29.022Z,2.35
2023-05-02T03:54:54.786Z,2.70
2023-05-02T03:57:20.763Z,3.08
2023-05-02T03:59:46.919Z,3.00
2023-05-02T04:04:53.778Z,2.45
2023-05-02T04:07:20.333Z,1.95
2023-05-02T04:09:46.903Z,2.70
2023-05-02T04:12:18.634Z,2.50
2023-05-02T04:14:45.784Z,2.35
2023-05-02T04:17:12.717Z,2.45
2023-05-02T04:19:42.084Z,2.35
2023-05-02T04:22:08.061Z,2.88
2023-05-02T04:27:20.687Z,2.45
2023-05-02T04:33:13.514Z,2.28
2023-05-02T04:35:41.356Z,2.50
2023-05-02T04:38:11.549Z,2.45
2023-05-02T04:40:50.210Z,2.42
2023-05-02T04:43:24.707Z,1.75
2023-05-02T04:46:01.507Z,2.45
2023-05-02T04:48:28.651Z,2.60
2023-05-02T04:50:59.641Z,2.65
2023-05-02T04:53:30.812Z,2.10
2023-05-02T04:55:58.997Z,2.10
2023-05-02T04:58:25.863Z,2.30
2023-05-02T05:04:24.677Z,2.70
2023-05-02T05:06:53.581Z,2.80
2023-05-02T05:09:21.058Z,2.45
2023-05-02T05:11:47.991Z,2.75
2023-05-02T05:14:18.561Z,3.55
2023-05-02T05:16:47.267Z,2.70
2023-05-02T05:19:16.715Z,3.90
2023-05-02T05:21:43.834Z,2.58
2023-05-02T05:35:48.498Z,2.95
2023-05-02T05:41:17.138Z,3.20
2023-05-02T05:43:44.429Z,3.30
2023-05-02T05:48:59.572Z,4.00
2023-05-02T05:51:29.422Z,4.13
2023-05-02T05:53:57.874Z,4.05
2023-05-02T10:01:46.852Z,3.83
2023-05-02T10:04:18.176Z,4.50
2023-05-02T10:06:53.148Z,4.53
2023-05-02T10:09:23.628Z,4.30
2023-05-02T11:35:37.950Z,3.75
2023-05-02T11:38:13.572Z,4.55
2023-05-02T11:40:42.842Z,3.85
2023-05-02T11:43:20.498Z,3.60
2023-05-02T11:45:47.753Z,3.13
2023-05-02T11:48:16.895Z,3.85
2023-05-02T11:50:50.342Z,3.28
2023-05-02T11:53:29.466Z,4.20
2023-05-02T12:30:00.512Z,2.90
2023-05-02T12:38:30.278Z,2.72
2023-05-02T12:40:59.973Z,3.58
2023-05-02T12:43:29.908Z,4.57
2023-05-02T12:46:09.536Z,3.03
2023-05-02T12:53:52.782Z,2.97
2023-05-02T12:56:20.959Z,3.03
2023-05-02T12:58:51.439Z,2.53
2023-05-02T13:01:19.667Z,2.95
2023-05-02T13:03:49.404Z,2.95
2023-05-02T13:08:57.741Z,3.55
2023-05-02T13:11:51.469Z,2.90
2023-05-02T13:14:23.490Z,2.67
2023-05-02T13:16:52.505Z,2.63
2023-05-02T13:22:04.549Z,3.22
2023-05-02T13:30:01.913Z,2.58
2023-05-02T13:32:38.423Z,2.83
2023-05-02T13:35:08.505Z,3.35
2023-05-02T13:37:36.383Z,2.83
2023-05-02T13:40:07.320Z,3.30
2023-05-02T13:42:42.458Z,2.92
2023-05-02T13:45:14.507Z,3.80
2023-05-02T13:55:47.381Z,4.18
2023-05-02T13:58:15.255Z,2.70
2023-05-02T14:05:50.324Z,3.70
2023-05-02T14:11:06.561Z,3.03
2023-05-02T14:13:45.221Z,3.20
2023-05-02T14:16:54.705Z,2.97
2023-05-02T14:27:32.249Z,3.55
2023-05-02T14:35:27.365Z,3.03
2023-05-02T14:37:55.004Z,3.35
2023-05-02T14:40:22.592Z,4.03
2023-05-02T14:45:31.830Z,3.72
2023-05-02T15:05:01.340Z,4.35
2023-05-02T15:07:32.936Z,4.03
2023-05-02T15:10:05.023Z,3.22
2023-05-02T15:12:34.199Z,3.25
2023-05-02T15:18:13.120Z,3.25
2023-05-02T15:20:43.940Z,3.38
2023-05-02T15:23:11.768Z,3.10
2023-05-02T15:25:38.817Z,4.07
2023-05-02T15:28:10.099Z,3.15
2023-05-02T15:45:15.395Z,2.92
2023-05-02T15:47:44.990Z,3.13
2023-05-02T15:50:13.701Z,2.75
2023-05-02T15:52:43.610Z,4.35
2023-05-02T15:55:11.435Z,3.22
2023-05-02T16:06:09.391Z,3.17
2023-05-02T16:08:36.505Z,2.90
2023-05-02T17:03:05.292Z,2.90
2023-05-02T17:05:34.566Z,2.25
2023-05-02T17:08:05.597Z,2.78
2023-05-02T17:10:35.374Z,2.35
2023-05-02T17:13:03.042Z,1.70
2023-05-02T17:15:30.355Z,2.30
2023-05-02T17:18:01.857Z,2.78
2023-05-02T17:20:36.314Z,2.00
2023-05-02T17:25:48.789Z,2.42
2023-05-02T17:28:19.638Z,2.17
2023-05-02T17:34:04.565Z,2.15
2023-05-02T17:36:33.800Z,3.38
2023-05-02T17:39:09.301Z,1.95
2023-05-02T17:41:39.144Z,2.22
2023-05-02T17:44:13.845Z,2.00
2023-05-02T17:49:27.099Z,2.80
2023-05-02T17:51:56.905Z,2.30
2023-05-02T17:56:54.963Z,2.10
2023-05-02T18:05:18.678Z,2.10
2023-05-02T18:07:47.118Z,1.83
2023-05-02T18:12:56.671Z,2.13
2023-05-02T18:15:29.454Z,1.98
2023-05-02T18:17:59.404Z,2.08
2023-05-02T18:20:28.665Z,3.03
2023-05-02T18:22:56.950Z,2.17
2023-05-02T18:28:05.868Z,1.92
2023-05-02T18:31:02.887Z,2.25
2023-05-02T19:03:47.703Z,1.55
2023-05-02T19:06:18.817Z,2.40
2023-05-02T19:08:46.025Z,1.85
2023-05-02T19:11:12.733Z,1.20
2023-05-02T19:16:27.256Z,2.28
2023-05-02T19:19:03.921Z,1.63
2023-05-02T19:21:31.364Z,1.50
2023-05-02T19:24:04.891Z,1.45
2023-05-02T19:26:32.568Z,2.38
2023-05-02T19:29:00.792Z,1.50
2023-05-02T19:31:30.594Z,1.63
2023-05-02T19:34:01.872Z,2.50
2023-05-02T19:39:10.905Z,1.33
2023-05-02T19:41:38.741Z,1.92
2023-05-02T19:44:05.303Z,1.67
2023-05-02T19:46:33.484Z,1.67
2023-05-02T19:49:03.189Z,1.98
2023-05-02T19:51:36.662Z,1.92
2023-05-02T19:54:06.796Z,1.75
2023-05-02T19:59:24.661Z,1.73
2023-05-02T20:02:05.621Z,1.35
2023-05-02T20:04:40.275Z,3.13
2023-05-02T20:07:07.414Z,1.25
2023-05-02T20:09:38.686Z,2.58
2023-05-02T20:12:06.838Z,1.58
2023-05-02T20:19:55.510Z,1.48
2023-05-02T20:22:21.648Z,1.50
2023-05-02T20:24:52.120Z,1.58
2023-05-02T20:27:19.719Z,1.65
2023-05-02T20:29:58.048Z,1.75
2023-05-02T20:32:25.083Z,1.77
2023-05-02T20:34:54.412Z,2.50
2023-05-02T20:37:23.439Z,1.80
2023-05-02T20:39:50.138Z,1.35
2023-05-02T20:42:23.111Z,1.13
2023-05-02T20:44:56.715Z,1.45
2023-05-02T20:47:29.506Z,1.70
2023-05-02T20:49:57.047Z,1.83
2023-05-02T20:52:23.416Z,1.40
2023-05-02T20:54:52.857Z,1.27
2023-05-02T20:57:18.935Z,1.52
2023-05-02T20:59:51.510Z,1.92
2023-05-02T21:02:25.736Z,1.58
2023-05-02T21:04:52.447Z,1.80
2023-05-02T21:07:22.895Z,2.47
2023-05-02T21:09:50.523Z,1.77
2023-05-02T21:12:19.756Z,1.60
2023-05-02T21:14:50.506Z,1.27
2023-05-02T21:19:42.392Z,1.92
2023-05-02T21:22:08.922Z,1.33
2023-05-02T21:24:35.269Z,1.23
2023-05-02T21:27:01.845Z,1.90
2023-05-02T21:29:46.785Z,1.85
2023-05-02T21:32:14.399Z,1.63
2023-05-02T21:34:40.549Z,2.00
2023-05-02T21:37:07.033Z,1.73
2023-05-02T21:39:33.932Z,1.60
2023-05-02T21:42:01.002Z,1.25
2023-05-02T21:44:27.429Z,1.95
2023-05-02T21:46:54.081Z,1.58
2023-05-02T21:49:20.242Z,1.85
2023-05-02T21:51:46.740Z,2.33
2023-05-02T21:54:13.128Z,1.70
2023-05-02T21:56:39.392Z,1.92
2023-05-02T21:59:24.459Z,1.80
2023-05-02T22:01:50.860Z,1.60
2023-05-02T22:04:17.391Z,1.83
2023-05-02T22:06:47.908Z,2.30
2023-05-02T22:09:13.832Z,1.35
2023-05-02T22:11:39.915Z,1.70
2023-05-02T22:14:06.129Z,1.85
2023-05-02T22:16:31.988Z,1.77
2023-05-02T22:18:57.759Z,1.70
2023-05-02T22:21:24.272Z,2.05
2023-05-02T22:23:50.178Z,1.73
2023-05-02T22:26:16.011Z,1.30
2023-05-02T22:28:41.823Z,2.00
2023-05-02T22:31:08.242Z,1.67
2023-05-02T22:33:34.068Z,1.70
2023-05-02T22:35:59.831Z,1.67
2023-05-02T22:38:25.702Z,1.60
2023-05-02T22:40:51.455Z,1.60
2023-05-02T22:43:17.344Z,1.60
2023-05-02T22:45:43.271Z,2.15
2023-05-02T22:48:09.063Z,1.40
2023-05-02T22:50:34.942Z,1.70
2023-05-02T22:53:03.010Z,1.80
2023-05-02T22:55:28.828Z,1.55
2023-05-02T22:57:54.640Z,1.90
2023-05-02T23:00:21.990Z,1.63
2023-05-02T23:02:47.803Z,1.88
2023-05-02T23:05:13.630Z,2.20
2023-05-02T23:07:39.621Z,2.33
2023-05-02T23:10:06.060Z,2.38
2023-05-02T23:12:32.080Z,1.98
2023-05-02T23:14:58.013Z,2.00
2023-05-02T23:17:23.896Z,1.75
2023-05-02T23:19:50.125Z,2.45
2023-05-02T23:22:15.991Z,1.63
2023-05-02T23:24:41.988Z,2.03
2023-05-02T23:27:08.007Z,1.50
2023-05-02T23:29:33.776Z,2.28
2023-05-02T23:31:59.705Z,2.17
2023-05-02T23:34:25.664Z,1.88
2023-05-02T23:36:52.031Z,1.92
2023-05-02T23:39:17.924Z,1.80
2023-05-02T23:41:43.664Z,1.95
2023-05-02T23:44:09.555Z,1.35
2023-05-02T23:46:35.459Z,2.30
2023-05-02T23:49:01.294Z,2.35
2023-05-02T23:51:27.827Z,1.40
2023-05-02T23:53:53.853Z,1.95
2023-05-02T23:56:20.394Z,1.90
2023-05-02T23:58:46.520Z,2.08
